Nearby METAR Reports

 

KSJC - San Jose, California, USA
Distance from station: NE 14km
Actualización: 06/12/2021 06:53
Muy nuboso
Muy nuboso
 Viento del varies
Viento: varies 6 km/h
Temperatura: 11°C
Rocío: 9°C
Humedad: 88%
Barómetro: 1023 hPa
Clouds: Muy nuboso
Visibilidad: 13 km
Cloud details: Muy nuboso 213 m
2021/12/06 05:53 KSJC 060553Z VRB03KT 8SM BKN007 11/09 A3021 RMK AO2 SLP229 T01060089 10150 20100 52007
KNUQ - Moffett Nas/Mtn, California, USA
Distance from station: N 14km
Actualización: 06/12/2021 06:55
Muy nuboso
Muy nuboso
 Viento del calm
Viento: Calma
Temperatura: 10°C
Rocío: 9°C
Humedad: 94%
Barómetro: 1023 hPa
Clouds: Muy nuboso
Visibilidad: 11 km
Cloud details: Muy nuboso 122 m
2021/12/06 05:55 KNUQ 060555Z AUTO 00000KT 7SM BKN004 10/09 A3021 RMK AO2
 
KPAO - Palo Alto, California, USA
Distance from station: NNO 23km
Actualización: 06/12/2021 05:47
NOT Current
Despejado
Despejado
 Viento del SSO
Viento: SSO 9 km/h
Temperatura: 8°C
Temp.Sensacion: 6°C
Rocío: 8°C
Humedad: 100%
Barómetro: 1022.7 hPa
Clouds: Despejado
Visibilidad: 16 km
2021/12/06 04:47 KPAO 060447Z 20005KT 10SM SKC 08/08 A3020 RMK FG DEVELOPING IN VC OF KPAO (LAST REPORT)
KRHV - San Jose/Reid, California, USA
Distance from station: ENE 19km
Actualización: 06/12/2021 06:50
Parcialmente nuboso
Parcialmente nuboso
 Viento del calm
Viento: Calma
Temperatura: 9°C
Rocío: 7°C
Humedad: 87%
Barómetro: 1023.4 hPa
Clouds: Parcialmente nuboso
Visibilidad: 13 km
Cloud details: Parcialmente nuboso 244 m
2021/12/06 05:50 KRHV 060550Z 00000KT 8SM SCT008 09/07 A3022 RMK LAST
 
KOAK - Oakland, California, USA
Distance from station: NNO 50km
Actualización: 06/12/2021 06:53
Mist, Few clouds
Mist, Few clouds
 Viento del calm
Viento: Calma
Temperatura: 9°C
Rocío: 8°C
Humedad: 94%
Barómetro: 1023 hPa
Resumen: Mist
Clouds: Few Clouds
Visibilidad: 10 km
Cloud details: Few Clouds 305 m
2021/12/06 05:53 KOAK 060553Z 00000KT 6SM BR FEW010 09/08 A3021 RMK AO2 SLP230 T00890083 10144 20083 53006
KSQL - San Carlos Airpo, California, USA
Distance from station: NO 34km
Actualización: 06/12/2021 06:55
Despejado
Despejado
 Viento del calm
Viento: Calma
Temperatura: 9°C
Rocío: 8°C
Humedad: 94%
Barómetro: 1023.4 hPa
Clouds: Despejado
Visibilidad: 13 km
2021/12/06 05:55 KSQL 060555Z AUTO 00000KT 8SM CLR 09/08 A3022 RMK AO2
 
KSFO - San Francisco, California, USA
Distance from station: NO 49km
Actualización: 06/12/2021 06:56
Few Clouds
Few Clouds
 Viento del ONO
Viento: ONO 11 km/h
Temperatura: 12°C
Rocío: 10°C
Humedad: 88%
Barómetro: 1023 hPa
Clouds: Few Clouds
Visibilidad: 16 km
Cloud details: Few Clouds 122 m
2021/12/06 05:56 KSFO 060556Z 29006KT 10SM FEW004 12/10 A3021 RMK AO2 SLP228 T01170100 10144 20117 53006
KE16 - San Martin, California, USA
Distance from station: ESE 43km
Actualización: 06/12/2021 06:55
Despejado
Despejado
 Viento del calm
Viento: Calma
Temperatura: 8°C
Rocío: 7°C
Humedad: 93%
Barómetro: 1023.7 hPa
Clouds: Despejado
Visibilidad: 11 km
2021/12/06 05:55 KE16 060555Z AUTO 00000KT 7SM CLR 08/07 A3023 RMK AO2 PWINO PNO
 
KWVI - Watsonville, California, USA
Distance from station: SSE 44km
Actualización: 06/12/2021 06:53
Despejado
Despejado
 Viento del ONO
Viento: ONO 7 km/h
Temperatura: 7°C
Temp.Sensacion: 6°C
Rocío: 6°C
Humedad: 93%
Barómetro: 1022.4 hPa
Clouds: Despejado
Visibilidad: 13 km
2021/12/06 05:53 KWVI 060553Z AUTO 30004KT 8SM CLR 07/06 A3019 RMK AO2 SLP225 T00670061 10133 20061 53003
KHAF - Half Moon Bay, California, USA
Distance from station: ONO 50km
Actualización: 06/12/2021 06:55
Mist, Cubierto
Mist, Cubierto
 Viento del NNO
Viento: NNO 17 km/h
Temperatura: 12°C
Rocío: 12°C
Humedad: 100%
Barómetro: 1023.4 hPa
Resumen: Mist
Clouds: Cubierto
Visibilidad: 8 km
Cloud details: Cubierto 213 m
2021/12/06 05:55 KHAF 060555Z AUTO 34009KT 5SM BR OVC007 12/12 A3022 RMK AO2
 
KHWD - Hayward, California, USA
Distance from station: N 44km
Actualización: 06/12/2021 06:54
Despejado
Despejado
 Viento del ENE
Viento: ENE 9 km/h
Temperatura: 9°C
Temp.Sensacion: 7°C
Rocío: 7°C
Humedad: 87%
Barómetro: 1022.7 hPa
Clouds: Despejado
Visibilidad: 11 km
2021/12/06 05:54 KHWD 060554Z AUTO 07005KT 7SM CLR 09/07 A3020 RMK AO2 SLP237 T00940072 10144 20089 53006
KLVK - Livermore, California, USA
Distance from station: NNE 51km
Actualización: 06/12/2021 06:53
Despejado
Despejado
 Viento del calm
Viento: Calma
Temperatura: 7°C
Rocío: 6°C
Humedad: 93%
Barómetro: 1022.7 hPa
Clouds: Despejado
Visibilidad: 14 km
2021/12/06 05:53 KLVK 060553Z AUTO 00000KT 9SM CLR 07/06 A3020 RMK AO2 SLP227 T00720061 10144 20067 53005